Time;durP1;ratioP1;P1;durP2;ratioP2;P2;SDS_P1;SDS_P2;PMS_P1;PMS_P2;Temp;Humidity;BMP_temperature;BMP_pressure;BME280_temperature;BME280_humidity;BME280_pressure;Samples;Min_cycle;Max_cycle;Signal;HPM_P1;HPM_P2
2021/04/11 00:00:39;;;;;;;50.40;34.40;;;3.00;99.90;;;;;;4854458;28;20194;-78
2021/04/11 00:03:01;;;;;;;45.83;31.20;;;;;;;;;;4864829;28;20209;-77
2021/04/11 00:05:26;;;;;;;43.03;30.30;;;3.00;99.90;;;;;;4867326;28;20181;-78
2021/04/11 00:07:49;;;;;;;48.30;31.40;;;3.00;1.00;;;;;;4866341;28;20217;-76
2021/04/11 00:10:15;;;;;;;49.40;31.37;;;3.00;1.00;;;;;;4862642;28;20225;-77
2021/04/11 00:12:37;;;;;;;43.17;30.63;;;;;;;;;;4869483;28;20190;-77
2021/04/11 00:14:59;;;;;;;44.27;30.43;;;;;;;;;;4868923;28;20710;-77
2021/04/11 00:17:22;;;;;;;45.23;30.27;;;;;;;;;;4859470;28;20194;-77
2021/04/11 00:19:44;;;;;;;38.63;27.13;;;;;;;;;;4857488;28;20248;-76
2021/04/11 00:22:06;;;;;;;40.77;28.20;;;;;;;;;;4856891;28;20597;-77
2021/04/11 00:24:29;;;;;;;38.30;27.07;;;3.00;1.00;;;;;;4856094;28;20237;-75
2021/04/11 00:26:51;;;;;;;39.43;27.83;;;;;;;;;;4866345;28;20651;-77
2021/04/11 00:29:14;;;;;;;41.33;27.93;;;;;;;;;;4866294;28;20193;-77
2021/04/11 00:31:36;;;;;;;40.90;28.17;;;;;;;;;;4867610;28;20189;-78
2021/04/11 00:33:58;;;;;;;41.47;28.50;;;;;;;;;;4869585;28;20193;-77
2021/04/11 00:36:20;;;;;;;39.63;28.17;;;;;;;;;;4865940;28;20616;-76
2021/04/11 00:38:43;;;;;;;38.97;27.87;;;2.80;1.00;;;;;;4862287;28;20227;-78
2021/04/11 00:41:14;;;;;;;45.17;30.07;;;2.80;1.00;;;;;;4866817;28;20187;-76
2021/04/11 00:43:38;;;;;;;42.47;30.60;;;;;;;;;;4852508;28;20197;-76
2021/04/11 00:46:09;;;;;;;42.80;29.53;;;2.70;40.10;;;;;;4866684;28;20186;-77
2021/04/11 00:48:32;;;;;;;44.20;30.40;;;2.80;99.90;;;;;;4858427;28;20205;-76
2021/04/11 00:50:57;;;;;;;36.80;27.53;;;2.70;99.90;;;;;;4857911;28;20190;-77
2021/04/11 00:53:19;;;;;;;39.53;27.53;;;;;;;;;;4866343;28;20659;-77
2021/04/11 00:55:41;;;;;;;39.30;26.97;;;;;;;;;;4863912;28;20186;-77
2021/04/11 00:58:04;;;;;;;39.83;28.20;;;2.60;99.90;;;;;;4855859;28;20679;-76
2021/04/11 01:00:32;;;;;;;42.10;29.03;;;2.60;99.90;;;;;;4856598;28;20725;-74
2021/04/11 01:02:54;;;;;;;41.60;29.10;;;;;;;;;;4864669;28;20222;-77
2021/04/11 01:05:21;;;;;;;39.60;27.40;;;2.50;99.90;;;;;;4839143;28;20230;-77
2021/04/11 01:07:46;;;;;;;40.43;28.33;;;2.50;99.90;;;;;;4865513;28;20240;-78
2021/04/11 01:10:12;;;;;;;43.43;28.43;;;2.30;99.90;;;;;;4855273;28;20252;-77
2021/04/11 01:12:35;;;;;;;38.00;27.67;;;;;;;;;;4864158;28;20252;-76
2021/04/11 01:14:59;;;;;;;37.93;26.43;;;2.50;99.90;;;;;;4863670;28;20209;-76
2021/04/11 01:17:25;;;;;;;40.30;27.27;;;2.40;99.90;;;;;;4859034;28;20256;-78
2021/04/11 01:19:53;;;;;;;37.43;26.20;;;2.40;99.90;;;;;;4859398;28;20228;-77
2021/04/11 01:22:28;;;;;;;38.93;26.27;;;2.30;99.90;;;;;;4866359;28;20247;-76
2021/04/11 01:24:54;;;;;;;36.73;25.87;;;2.20;99.90;;;;;;4867883;28;20223;-77
2021/04/11 01:27:19;;;;;;;33.87;25.27;;;2.10;99.90;;;;;;4864663;28;20225;-78
2021/04/11 01:29:42;;;;;;;37.63;27.03;;;2.10;99.90;;;;;;4864328;28;20651;-76
2021/04/11 01:32:07;;;;;;;37.73;25.80;;;2.00;99.90;;;;;;4839339;28;20199;-75
2021/04/11 01:34:31;;;;;;;39.50;26.40;;;;;;;;;;4856982;28;20949;-79
2021/04/11 01:36:54;;;;;;;36.87;26.23;;;1.90;99.90;;;;;;4863715;28;20235;-77
2021/04/11 01:39:23;;;;;;;37.53;26.00;;;1.80;99.90;;;;;;4864813;28;20243;-76
2021/04/11 01:41:51;;;;;;;36.07;26.03;;;1.80;1.00;;;;;;4861506;28;20205;-77
2021/04/11 01:44:17;;;;;;;37.57;25.53;;;1.80;1.00;;;;;;4848180;28;20534;-79
2021/04/11 01:46:39;;;;;;;35.67;25.90;;;1.80;1.00;;;;;;4856509;28;20595;-78
2021/04/11 01:49:02;;;;;;;37.97;26.57;;;;;;;;;;4855657;28;20259;-77
2021/04/11 01:51:27;;;;;;;44.40;27.60;;;1.70;1.00;;;;;;4862394;28;20598;-77
2021/04/11 01:53:52;;;;;;;41.80;27.30;;;1.60;1.00;;;;;;4844580;28;20607;-75
2021/04/11 01:56:15;;;;;;;37.53;25.47;;;1.60;1.00;;;;;;4866079;28;20559;-78
2021/04/11 01:58:39;;;;;;;38.07;25.23;;;1.60;1.00;;;;;;4865795;28;20224;-77
2021/04/11 02:01:20;;;;;;;35.67;24.43;;;1.60;1.00;;;;;;4854738;28;20707;-77
2021/04/11 02:03:44;;;;;;;37.17;24.17;;;;;;;;;;4844516;28;20191;-77
2021/04/11 02:06:10;;;;;;;39.23;24.83;;;1.50;1.00;;;;;;4862536;28;20676;-78
2021/04/11 02:08:33;;;;;;;36.17;24.87;;;;;;;;;;4855641;28;20271;-76
2021/04/11 02:10:57;;;;;;;35.83;23.67;;;1.50;1.00;;;;;;4863457;28;20695;-78
2021/04/11 02:13:23;;;;;;;34.77;23.60;;;1.50;1.00;;;;;;4865631;28;20255;-77
2021/04/11 02:15:51;;;;;;;32.50;22.43;;;1.50;1.00;;;;;;4865819;28;20193;-75
2021/04/11 02:18:15;;;;;;;32.90;22.17;;;;;;;;;;4864364;28;20243;-76
2021/04/11 02:20:39;;;;;;;32.50;22.50;;;;;;;;;;4857108;28;20259;-77
2021/04/11 02:23:02;;;;;;;32.13;22.63;;;;;;;;;;4854987;28;20668;-77
2021/04/11 02:25:30;;;;;;;33.93;23.17;;;1.40;1.00;;;;;;4865548;28;20185;-78
2021/04/11 02:28:11;;;;;;;35.83;23.20;;;1.40;1.00;;;;;;4863558;28;20760;-77
2021/04/11 02:30:36;;;;;;;33.97;23.47;;;1.40;1.00;;;;;;4866918;28;20181;-77
2021/04/11 02:33:00;;;;;;;30.27;22.83;;;1.40;1.00;;;;;;4865982;28;20193;-77
2021/04/11 02:35:25;;;;;;;32.10;22.90;;;1.30;1.00;;;;;;4857239;28;20294;-77
2021/04/11 02:37:52;;;;;;;31.00;22.07;;;1.30;1.00;;;;;;4861865;28;20181;-75
2021/04/11 02:40:23;;;;;;;32.30;22.20;;;1.20;1.00;;;;;;4862648;28;20196;-77
2021/04/11 02:42:47;;;;;;;30.83;21.37;;;;;;;;;;4863192;28;20258;-76
2021/04/11 02:45:13;;;;;;;34.10;21.97;;;1.10;1.00;;;;;;4855027;28;20659;-76
2021/04/11 02:47:42;;;;;;;35.43;23.03;;;;;;;;;;4858578;28;20201;-77
2021/04/11 02:50:08;;;;;;;32.23;22.50;;;1.10;1.00;;;;;;4866337;28;20210;-77
2021/04/11 02:52:34;;;;;;;35.50;21.43;;;1.10;1.00;;;;;;4867024;28;20252;-77
2021/04/11 02:54:59;;;;;;;34.70;22.47;;;1.10;1.00;;;;;;4867815;28;20197;-78
2021/04/11 02:57:22;;;;;;;36.10;22.57;;;1.10;1.00;;;;;;4868075;28;20334;-77
2021/04/11 02:59:45;;;;;;;30.00;19.80;;;1.20;1.00;;;;;;4859459;28;20374;-77
2021/04/11 03:02:08;;;;;;;31.77;20.77;;;;;;;;;;4855469;28;20287;-79
2021/04/11 03:04:39;;;;;;;29.80;20.30;;;;;;;;;;4862757;28;20248;-78
2021/04/11 03:07:10;;;;;;;27.23;19.10;;;1.20;1.00;;;;;;4867829;28;20186;-77
2021/04/11 03:09:36;;;;;;;25.67;18.60;;;1.10;1.00;;;;;;4864911;28;20280;-76
2021/04/11 03:12:01;;;;;;;29.67;19.93;;;1.10;1.00;;;;;;4866383;28;20231;-78
2021/04/11 03:14:32;;;;;;;31.03;20.60;;;1.00;1.00;;;;;;4843120;28;20272;-78
2021/04/11 03:16:56;;;;;;;31.07;20.97;;;1.00;1.00;;;;;;4857859;28;20591;-77
2021/04/11 03:19:23;;;;;;;33.73;20.63;;;0.90;1.00;;;;;;4865733;28;20202;-76
2021/04/11 03:21:48;;;;;;;27.47;18.70;;;;;;;;;;4858337;28;20590;-76
2021/04/11 03:24:12;;;;;;;29.13;18.93;;;0.90;1.00;;;;;;4858607;28;20182;-78
2021/04/11 03:26:43;;;;;;;27.87;18.63;;;0.90;1.00;;;;;;4863581;28;20217;-77
2021/04/11 03:29:12;;;;;;;30.27;19.17;;;0.90;1.00;;;;;;4867718;28;20221;-78
2021/04/11 03:31:39;;;;;;;26.90;18.53;;;0.80;1.00;;;;;;4857995;28;20213;-79
2021/04/11 03:34:05;;;;;;;29.93;19.17;;;0.80;1.00;;;;;;4858778;28;20198;-77
2021/04/11 03:36:31;;;;;;;29.27;18.73;;;0.90;1.00;;;;;;4860263;28;20183;-78
2021/04/11 03:38:55;;;;;;;28.37;17.50;;;0.90;1.00;;;;;;4848391;28;20245;-78
2021/04/11 03:41:20;;;;;;;25.40;17.73;;;0.90;1.00;;;;;;4857905;28;20198;-75
2021/04/11 03:43:50;;;;;;;26.73;17.80;;;0.20;1.00;;;;;;4871449;28;20190;-76
2021/04/11 03:46:26;;;;;;;29.67;18.57;;;0.90;1.00;;;;;;4866538;28;20197;-77
2021/04/11 03:48:57;;;;;;;29.57;17.40;;;0.80;1.00;;;;;;4869298;28;20229;-78
2021/04/11 03:51:22;;;;;;;30.00;17.87;;;0.80;1.00;;;;;;4868375;28;20678;-78
2021/04/11 03:53:48;;;;;;;27.10;18.27;;;0.80;1.00;;;;;;4860772;28;20194;-78
2021/04/11 03:56:13;;;;;;;24.77;16.87;;;0.70;1.00;;;;;;4866229;28;20709;-78
2021/04/11 03:58:41;;;;;;;26.33;17.53;;;0.70;1.00;;;;;;4855673;28;20202;-78
2021/04/11 04:01:19;;;;;;;27.40;18.00;;;0.70;1.00;;;;;;4864211;28;20237;-77
2021/04/11 04:03:43;;;;;;;24.20;16.77;;;0.70;1.00;;;;;;4868679;28;20248;-77
2021/04/11 04:06:10;;;;;;;23.47;16.47;;;0.70;1.00;;;;;;4869417;28;20193;-78
2021/04/11 04:08:33;;;;;;;24.07;16.33;;;;;;;;;;4840974;28;20226;-76
2021/04/11 04:11:10;;;;;;;25.23;16.27;;;0.60;1.00;;;;;;4866717;28;20255;-78
2021/04/11 04:14:05;;;;;;;23.53;15.73;;;0.60;1.00;;;;;;4861441;28;20686;-77
2021/04/11 04:16:58;;;;;;;22.43;15.63;;;0.60;1.00;;;;;;4862394;28;20185;-75
2021/04/11 04:19:53;;;;;;;24.60;15.93;;;0.60;1.00;;;;;;4858542;28;20185;-78
2021/04/11 04:23:03;;;;;;;22.30;15.87;;;0.70;1.00;;;;;;4862400;28;20169;-78
2021/04/11 04:26:06;;;;;;;24.20;16.03;;;0.70;1.00;;;;;;4861813;28;20181;-78
2021/04/11 04:29:01;;;;;;;25.53;15.97;;;0.70;1.00;;;;;;4861205;28;20206;-78
2021/04/11 04:31:58;;;;;;;23.43;15.77;;;0.70;1.00;;;;;;4860267;28;20205;-78
2021/04/11 04:34:30;;;;;;;20.97;14.57;;;0.80;1.00;;;;;;4873197;28;20204;-77
2021/04/11 04:37:02;;;;;;;19.90;14.50;;;0.90;1.00;;;;;;4857213;28;20194;-72
2021/04/11 04:39:37;;;;;;;15.90;11.83;;;1.00;1.00;;;;;;4857140;28;20205;-78
2021/04/11 04:42:18;;;;;;;16.97;11.07;;;1.20;1.00;;;;;;4857127;28;20230;-77
2021/04/11 04:44:57;;;;;;;15.87;10.63;;;1.40;1.00;;;;;;4862397;28;20202;-78
2021/04/11 04:47:35;;;;;;;15.43;11.53;;;2.80;4.80;;;;;;4866575;28;20205;-75
2021/04/11 04:50:09;;;;;;;14.27;10.80;;;1.80;5.40;;;;;;4855329;28;20218;-78
2021/04/11 04:52:36;;;;;;;11.67;8.20;;;;;;;;;;4858563;28;20198;-79
2021/04/11 04:55:01;;;;;;;12.17;9.00;;;2.10;6.40;;;;;;4857661;28;20602;-79
2021/04/11 04:57:29;;;;;;;13.27;8.63;;;2.30;4.10;;;;;;4867221;28;20264;-78
2021/04/11 05:00:04;;;;;;;15.00;9.00;;;2.50;1.00;;;;;;4867529;28;20185;-77
2021/04/11 05:02:40;;;;;;;13.53;10.77;;;2.80;1.00;;;;;;4864702;28;20230;-78
2021/04/11 05:05:08;;;;;;;24.97;18.90;;;3.20;1.00;;;;;;4857908;28;20244;-80
2021/04/11 05:07:43;;;;;;;17.57;13.57;;;3.20;1.00;;;;;;4838907;28;20654;-78
2021/04/11 05:10:11;;;;;;;13.03;9.93;;;3.30;1.00;;;;;;4853771;28;20237;-77
2021/04/11 05:12:48;;;;;;;9.90;8.03;;;3.60;1.00;;;;;;4859225;28;20201;-79
2021/04/11 05:15:16;;;;;;;12.43;8.97;;;3.70;1.00;;;;;;4858454;28;20252;-77
2021/04/11 05:17:49;;;;;;;9.33;8.07;;;3.90;1.00;;;;;;4845253;28;20230;-78
2021/04/11 05:20:15;;;;;;;11.00;9.27;;;4.10;1.00;;;;;;4862874;28;20210;-77
2021/04/11 05:22:49;;;;;;;16.20;11.67;;;4.20;1.00;;;;;;4867559;28;20193;-79
2021/04/11 05:25:19;;;;;;;12.97;9.40;;;4.40;99.90;;;;;;4865724;28;20202;-79
2021/04/11 05:27:51;;;;;;;11.50;8.93;;;4.60;92.20;;;;;;4855850;28;20225;-78
2021/04/11 05:30:17;;;;;;;10.80;8.43;;;4.80;1.00;;;;;;4856560;28;20210;-76
2021/04/11 05:32:39;;;;;;;9.07;6.90;;;;;;;;;;4856902;28;20762;-77
2021/04/11 05:35:02;;;;;;;8.63;6.13;;;;;;;;;;4847432;28;20198;-78
2021/04/11 05:37:31;;;;;;;7.63;6.50;;;5.50;1.00;;;;;;4865221;28;20221;-78
2021/04/11 05:40:01;;;;;;;8.87;6.63;;;5.70;99.90;;;;;;4867329;28;20651;-76
2021/04/11 05:42:32;;;;;;;6.67;5.67;;;6.00;99.90;;;;;;4858434;28;20629;-78
2021/04/11 05:45:00;;;;;;;7.67;6.03;;;6.30;1.00;;;;;;4866963;28;20190;-77
2021/04/11 05:47:29;;;;;;;8.93;5.83;;;6.50;99.90;;;;;;4865323;28;20215;-76
2021/04/11 05:49:57;;;;;;;7.50;5.20;;;6.70;1.00;;;;;;4863042;28;20252;-77
2021/04/11 05:52:24;;;;;;;5.80;3.90;;;7.00;1.00;;;;;;4865233;28;20721;-77
2021/04/11 05:54:51;;;;;;;6.37;4.10;;;7.20;99.90;;;;;;4862645;28;20190;-76
2021/04/11 05:57:18;;;;;;;4.37;3.97;;;7.40;99.90;;;;;;4866384;28;20193;-74
2021/04/11 05:59:44;;;;;;;5.53;4.27;;;7.50;99.90;;;;;;4856033;28;20182;-76
2021/04/11 06:02:13;;;;;;;5.63;4.40;;;7.60;99.90;;;;;;4861484;28;20282;-77
2021/04/11 06:04:47;;;;;;;4.43;3.70;;;7.80;99.40;;;;;;4850494;28;20280;-77
2021/04/11 06:07:13;;;;;;;4.23;3.83;;;8.00;54.20;;;;;;4865021;28;20189;-77
2021/04/11 06:09:39;;;;;;;5.77;3.93;;;8.20;19.20;;;;;;4866807;28;20208;-78
2021/04/11 06:12:05;;;;;;;5.23;4.30;;;8.40;1.00;;;;;;4866911;28;20204;-78
2021/04/11 06:14:32;;;;;;;3.73;3.37;;;8.60;1.00;;;;;;4857226;28;20190;-77
2021/04/11 06:16:54;;;;;;;3.50;2.90;;;;;;;;;;4866980;28;20300;-78
2021/04/11 06:19:17;;;;;;;3.07;2.77;;;9.50;1.00;;;;;;4864528;28;20662;-78
2021/04/11 06:21:50;;;;;;;3.00;2.70;;;10.00;1.00;;;;;;4860845;28;20224;-78
2021/04/11 06:24:24;;;;;;;4.40;3.40;;;10.30;1.00;;;;;;4864736;28;20194;-77
2021/04/11 06:26:52;;;;;;;2.93;2.60;;;10.50;1.00;;;;;;4864502;28;20226;-78
2021/04/11 06:29:18;;;;;;;4.07;3.00;;;10.70;1.00;;;;;;4853988;28;20248;-77
2021/04/11 06:31:46;;;;;;;3.60;2.60;;;10.70;1.00;;;;;;4856191;28;20208;-75
2021/04/11 06:34:13;;;;;;;4.47;3.40;;;10.70;1.00;;;;;;4860834;28;20197;-78
2021/04/11 06:36:39;;;;;;;3.27;2.53;;;10.70;1.00;;;;;;4855439;28;20185;-74
2021/04/11 06:39:06;;;;;;;4.33;3.10;;;10.80;1.00;;;;;;4852215;28;20315;-75
2021/04/11 06:42:03;;;;;;;2.90;2.43;;;10.90;1.00;;;;;;4855935;28;20582;-78
2021/04/11 06:44:47;;;;;;;3.87;2.73;;;11.00;1.00;;;;;;4835229;28;20300;-76
2021/04/11 06:47:43;;;;;;;5.23;3.23;;;11.10;99.90;;;;;;4854169;28;20259;-77
2021/04/11 06:50:16;;;;;;;3.73;2.57;;;11.30;99.90;;;;;;4852280;28;20711;-76
2021/04/11 06:53:20;;;;;;;2.60;2.30;;;11.50;99.90;;;;;;4856896;28;20178;-77
2021/04/11 06:56:02;;;;;;;3.40;2.57;;;11.70;99.90;;;;;;4846165;28;20201;-76
2021/04/11 06:58:29;;;;;;;6.80;3.57;;;11.90;99.90;;;;;;4871061;28;20193;-77
2021/04/11 07:01:19;;;;;;;6.50;3.33;;;12.00;99.90;;;;;;4853183;28;20228;-74
2021/04/11 07:04:25;;;;;;;3.87;2.27;;;12.30;99.90;;;;;;4855739;28;20186;-77
2021/04/11 07:07:24;;;;;;;3.33;2.03;;;12.50;99.90;;;;;;4826273;28;20525;-77
2021/04/11 07:09:51;;;;;;;4.73;2.03;;;12.80;99.90;;;;;;4864898;28;20214;-76
2021/04/11 07:12:50;;;;;;;3.97;2.37;;;13.30;1.00;;;;;;4856233;28;20194;-79
2021/04/11 07:15:36;;;;;;;4.67;2.50;;;13.80;1.00;;;;;;4864421;28;20186;-78
2021/04/11 07:18:35;;;;;;;5.03;2.60;;;13.60;99.90;;;;;;4865547;28;20283;-76
2021/04/11 07:21:43;;;;;;;3.23;1.83;;;14.00;99.90;;;;;;4842821;28;20302;-76
2021/04/11 07:24:37;;;;;;;5.03;2.50;;;14.50;99.90;;;;;;4858196;28;20554;-75
2021/04/11 07:27:09;;;;;;;4.43;2.27;;;15.10;1.00;;;;;;4859486;28;20332;-77
2021/04/11 07:29:46;;;;;;;1.90;1.30;;;16.20;1.00;;;;;;4854665;28;20252;-77
2021/04/11 07:32:26;;;;;;;3.33;1.87;;;16.80;99.90;;;;;;4867455;28;20250;-78
2021/04/11 07:35:02;;;;;;;1.60;1.17;;;17.10;99.90;;;;;;4841260;28;20190;-76
2021/04/11 07:37:34;;;;;;;3.23;1.73;;;17.20;99.90;;;;;;4868281;28;20182;-78
2021/04/11 07:40:06;;;;;;;2.67;1.43;;;17.20;99.90;;;;;;4873649;28;20781;-76
2021/04/11 07:43:12;;;;;;;2.03;1.30;;;17.10;99.90;;;;;;4859511;28;20183;-75
2021/04/11 07:45:53;;;;;;;1.67;1.20;;;16.90;99.90;;;;;;4863600;28;20621;-77
2021/04/11 07:48:41;;;;;;;2.83;1.53;;;16.70;99.90;;;;;;4873348;28;20599;-75
2021/04/11 07:51:16;;;;;;;3.30;1.80;;;16.70;99.90;;;;;;4859065;28;20194;-76
2021/04/11 07:54:08;;;;;;;1.97;1.07;;;17.00;1.00;;;;;;4861925;28;20190;-79
2021/04/11 07:56:44;;;;;;;1.20;0.90;;;16.70;99.90;;;;;;4854568;28;20179;-74
2021/04/11 07:59:34;;;;;;;3.50;1.90;;;16.70;99.90;;;;;;4868537;28;20177;-75
2021/04/11 08:02:19;;;;;;;2.07;1.17;;;16.80;99.90;;;;;;4867343;28;20685;-74
2021/04/11 08:05:21;;;;;;;1.70;1.10;;;16.80;99.90;;;;;;4858574;28;20181;-74
2021/04/11 08:07:57;;;;;;;2.27;1.20;;;16.80;99.90;;;;;;4861459;28;20178;-74
2021/04/11 08:10:50;;;;;;;2.33;1.47;;;16.80;99.90;;;;;;4867641;28;20266;-77
2021/04/11 08:13:34;;;;;;;3.07;1.63;;;16.80;99.90;;;;;;4867605;28;20202;-81
2021/04/11 08:16:03;;;;;;;3.83;2.03;;;16.90;99.90;;;;;;4860793;28;20417;-79
2021/04/11 08:19:07;;;;;;;7.23;3.07;;;16.90;99.90;;;;;;4860325;28;20237;-75
2021/04/11 08:21:38;;;;;;;2.00;1.13;;;17.10;99.90;;;;;;4857123;28;20254;-79
2021/04/11 08:24:16;;;;;;;5.23;2.10;;;17.20;99.90;;;;;;4868985;28;20211;-76
2021/04/11 08:27:29;;;;;;;1.40;0.90;;;17.40;1.00;;;;;;4859525;28;20217;-77
2021/04/11 08:30:13;;;;;;;3.90;1.73;;;17.80;99.90;;;;;;4861368;28;20278;-75
2021/04/11 08:32:57;;;;;;;2.50;1.00;;;17.90;99.90;;;;;;4858032;28;20632;-76
2021/04/11 08:35:41;;;;;;;5.33;1.63;;;17.90;99.90;;;;;;4868090;28;20190;-76
2021/04/11 08:38:31;;;;;;;9.93;2.33;;;18.10;99.90;;;;;;4867954;28;20643;-74
2021/04/11 08:41:16;;;;;;;7.17;1.83;;;18.30;99.90;;;;;;4863447;28;20174;-75
2021/04/11 08:43:54;;;;;;;2.13;0.83;;;18.40;99.90;;;;;;4850466;28;20256;-74
2021/04/11 08:46:28;;;;;;;5.17;1.17;;;18.40;99.90;;;;;;4866519;28;20190;-75
2021/04/11 08:49:08;;;;;;;4.00;1.10;;;18.60;99.90;;;;;;4865088;28;20708;-74
2021/04/11 08:51:36;;;;;;;4.07;1.10;;;18.80;99.90;;;;;;4859001;28;20182;-76
2021/04/11 08:54:14;;;;;;;6.90;1.73;;;19.10;99.90;;;;;;4871556;28;20600;-75
2021/04/11 08:56:40;;;;;;;3.47;0.80;;;19.50;99.90;;;;;;4855889;28;20189;-74
2021/04/11 08:59:12;;;;;;;5.40;1.37;;;19.90;99.90;;;;;;4867248;28;20193;-74
2021/04/11 09:01:53;;;;;;;5.13;1.20;;;20.50;99.90;;;;;;4859443;28;20226;-77
2021/04/11 09:04:20;;;;;;;4.43;1.27;;;21.70;99.90;;;;;;4865096;28;20188;-74
2021/04/11 09:07:07;;;;;;;8.77;2.00;;;23.30;99.90;;;;;;4862739;28;20215;-78
2021/04/11 09:09:45;;;;;;;5.73;1.20;;;24.50;99.90;;;;;;4855967;28;20219;-76
2021/04/11 09:12:18;;;;;;;10.60;2.00;;;24.10;99.90;;;;;;4865864;28;20192;-74
2021/04/11 09:14:50;;;;;;;7.03;1.43;;;24.00;99.90;;;;;;4862848;28;20766;-78
2021/04/11 09:17:27;;;;;;;12.33;2.40;;;24.70;99.90;;;;;;4866157;28;20178;-76
2021/04/11 09:19:56;;;;;;;6.00;1.33;;;25.70;99.90;;;;;;4861641;28;20194;-77
2021/04/11 09:22:44;;;;;;;5.90;1.23;;;26.50;99.90;;;;;;4866981;28;20194;-75
2021/04/11 09:25:12;;;;;;;9.53;1.90;;;28.00;99.90;;;;;;4868162;28;20186;-77
2021/04/11 09:27:54;;;;;;;12.47;2.27;;;28.90;99.90;;;;;;4864546;28;20249;-76
2021/04/11 09:30:34;;;;;;;6.47;1.33;;;29.00;99.90;;;;;;4854679;28;20855;-74
2021/04/11 09:33:18;;;;;;;6.33;1.30;;;28.40;99.90;;;;;;4857078;28;20654;-76
2021/04/11 09:35:45;;;;;;;5.33;1.23;;;27.00;99.90;;;;;;4859510;28;20233;-74
2021/04/11 09:38:29;;;;;;;11.80;2.30;;;25.70;99.90;;;;;;4856476;28;20243;-74
2021/04/11 09:41:14;;;;;;;6.67;1.47;;;26.50;99.90;;;;;;4856606;28;20188;-73
2021/04/11 09:44:00;;;;;;;4.43;1.07;;;27.20;99.90;;;;;;4822189;28;20242;-74
2021/04/11 09:46:39;;;;;;;6.77;1.57;;;26.30;99.90;;;;;;4866014;28;20268;-77
2021/04/11 09:49:26;;;;;;;11.57;2.40;;;25.60;99.90;;;;;;4866246;28;20192;-75
2021/04/11 09:52:17;;;;;;;5.73;1.30;;;25.40;99.90;;;;;;4863025;28;20181;-74
2021/04/11 09:54:45;;;;;;;5.40;1.30;;;25.80;99.90;;;;;;4851646;28;20238;-75
2021/04/11 09:57:30;;;;;;;8.27;1.80;;;26.30;99.90;;;;;;4856496;28;20597;-75
2021/04/11 10:00:25;;;;;;;4.67;1.17;;;26.50;99.90;;;;;;4868756;28;20242;-75
2021/04/11 10:03:10;;;;;;;4.23;1.10;;;25.90;99.90;;;;;;4787114;28;20236;-75
2021/04/11 10:05:46;;;;;;;4.33;1.03;;;25.20;99.90;;;;;;4851407;28;20201;-74
2021/04/11 10:08:28;;;;;;;6.37;1.43;;;25.10;99.90;;;;;;4856888;28;20193;-76
2021/04/11 10:11:00;;;;;;;5.07;1.27;;;24.60;99.90;;;;;;4867309;28;20230;-78
2021/04/11 10:13:44;;;;;;;5.23;1.33;;;24.80;99.90;;;;;;4865567;28;20709;-78
2021/04/11 10:16:19;;;;;;;10.20;2.37;;;26.80;99.90;;;;;;4860130;28;20195;-81
2021/04/11 10:19:13;;;;;;;4.50;1.20;;;29.10;99.90;;;;;;4858527;28;20203;-78
2021/04/11 10:21:50;;;;;;;3.60;1.00;;;31.40;99.90;;;;;;4858471;28;20191;-75
2021/04/11 10:24:26;;;;;;;9.13;2.10;;;33.30;99.90;;;;;;4866166;28;20181;-79
2021/04/11 10:26:52;;;;;;;5.68;1.10;;;34.20;99.90;;;;;;4864712;28;20221;-75
2021/04/11 10:29:17;;;;;;;7.15;1.38;;;34.30;99.90;;;;;;4853607;28;20680;-79
2021/04/11 10:31:46;;;;;;;5.15;1.13;;;33.40;99.90;;;;;;4855808;28;20240;-79
2021/04/11 10:34:13;;;;;;;10.00;1.92;;;32.30;99.90;;;;;;4862554;28;20240;-77
2021/04/11 10:36:43;;;;;;;5.80;1.20;;;31.30;99.90;;;;;;4867048;28;20193;-76
2021/04/11 10:39:16;;;;;;;11.73;2.20;;;30.10;99.90;;;;;;4864719;28;20266;-75
2021/04/11 10:41:52;;;;;;;4.43;1.03;;;28.80;99.90;;;;;;4853529;28;20235;-78
2021/04/11 10:44:36;;;;;;;6.73;1.43;;;27.80;99.90;;;;;;4864713;28;20226;-76
2021/04/11 10:47:16;;;;;;;5.40;1.23;;;27.00;99.90;;;;;;4864070;28;20195;-74
2021/04/11 10:49:46;;;;;;;4.17;1.07;;;26.10;99.90;;;;;;4857498;28;20243;-75
2021/04/11 10:52:32;;;;;;;9.80;2.30;;;24.80;99.90;;;;;;4863905;28;20248;-77
2021/04/11 10:55:39;;;;;;;5.83;1.43;;;23.50;99.90;;;;;;4859455;28;20192;-77
2021/04/11 10:58:42;;;;;;;8.03;1.80;;;22.40;99.90;;;;;;4831164;28;20193;-75
2021/04/11 11:01:29;;;;;;;26.10;5.03;;;21.70;99.90;;;;;;4827869;28;20601;-73
2021/04/11 11:04:18;;;;;;;6.83;1.40;;;21.40;99.90;;;;;;4850934;28;20221;-74
2021/04/11 11:07:07;;;;;;;11.67;2.07;;;21.40;99.90;;;;;;4860225;28;20178;-74
2021/04/11 11:09:35;;;;;;;5.77;1.10;;;21.60;99.90;;;;;;4855223;28;20714;-74
2021/04/11 11:12:22;;;;;;;11.93;2.07;;;22.20;99.90;;;;;;4867100;28;20198;-77
2021/04/11 11:15:06;;;;;;;6.87;1.50;;;21.90;99.90;;;;;;4849734;28;20201;-76
2021/04/11 11:17:48;;;;;;;12.17;2.10;;;21.40;99.90;;;;;;4860476;28;20247;-74
2021/04/11 11:20:19;;;;;;;15.03;2.43;;;20.80;99.90;;;;;;4863354;28;20257;-74
2021/04/11 11:23:05;;;;;;;10.40;1.90;;;20.50;99.90;;;;;;4869910;28;20230;-74
2021/04/11 11:25:39;;;;;;;8.67;1.63;;;20.10;99.90;;;;;;4859867;28;20248;-73
2021/04/11 11:28:33;;;;;;;10.97;2.17;;;19.60;99.90;;;;;;4866862;28;20792;-74
2021/04/11 11:31:20;;;;;;;5.70;1.33;;;19.20;99.90;;;;;;4866507;28;20209;-78
2021/04/11 11:34:00;;;;;;;5.90;1.23;;;18.90;99.90;;;;;;4861641;28;20232;-74
2021/04/11 11:36:32;;;;;;;5.20;1.27;;;18.70;99.90;;;;;;4868400;28;20296;-77
2021/04/11 11:39:07;;;;;;;8.50;1.87;;;18.60;99.90;;;;;;4851386;28;20194;-78
2021/04/11 11:41:44;;;;;;;9.87;1.80;;;18.70;99.90;;;;;;4859469;28;20786;-75
2021/04/11 11:44:13;;;;;;;11.60;2.27;;;19.80;99.90;;;;;;4868006;28;20232;-75
2021/04/11 11:46:42;;;;;;;8.87;1.83;;;21.40;99.90;;;;;;4864496;28;20190;-77
2021/04/11 11:49:15;;;;;;;9.07;1.83;;;22.60;99.90;;;;;;4865941;28;20253;-76
2021/04/11 11:51:55;;;;;;;3.53;0.90;;;23.50;99.90;;;;;;4861235;28;20263;-78
2021/04/11 11:54:24;;;;;;;10.73;2.13;;;24.20;99.90;;;;;;4867929;28;20251;-74
2021/04/11 11:56:56;;;;;;;5.43;1.20;;;23.90;99.90;;;;;;4869480;28;20719;-76
2021/04/11 11:59:26;;;;;;;10.07;2.13;;;23.60;99.90;;;;;;4868058;28;20190;-73
2021/04/11 12:01:53;;;;;;;8.23;1.70;;;23.60;99.90;;;;;;4864918;28;20306;-73
2021/04/11 12:04:31;;;;;;;10.10;2.07;;;23.50;99.90;;;;;;4864082;28;20584;-74
2021/04/11 12:06:57;;;;;;;7.07;1.57;;;23.20;99.90;;;;;;4862749;28;20181;-75
2021/04/11 12:09:24;;;;;;;6.10;1.30;;;23.10;99.90;;;;;;4865766;28;20264;-75
2021/04/11 12:11:52;;;;;;;6.20;1.37;;;22.60;99.90;;;;;;4865781;28;20279;-76
2021/04/11 12:14:23;;;;;;;10.83;2.23;;;22.10;99.90;;;;;;4867121;28;20248;-75
2021/04/11 12:16:48;;;;;;;6.83;1.43;;;21.50;99.90;;;;;;4866547;28;20185;-76
2021/04/11 12:19:16;;;;;;;8.80;1.93;;;21.10;99.90;;;;;;4864887;28;20646;-74
2021/04/11 12:21:44;;;;;;;4.50;1.17;;;20.10;99.90;;;;;;4858449;28;20258;-76
2021/04/11 12:24:09;;;;;;;11.43;2.43;;;19.90;99.90;;;;;;4866033;28;20194;-74
2021/04/11 12:26:32;;;;;;;9.03;1.87;;;;;;;;;;4857063;28;20221;-75
2021/04/11 12:29:03;;;;;;;9.07;1.83;;;19.70;99.90;;;;;;4857162;28;20179;-74
2021/04/11 12:31:30;;;;;;;6.33;1.37;;;19.40;99.90;;;;;;4866519;28;20205;-77
2021/04/11 12:33:58;;;;;;;6.50;1.47;;;19.20;99.90;;;;;;4866365;28;20228;-77
2021/04/11 12:36:29;;;;;;;6.67;1.50;;;19.90;99.90;;;;;;4857779;28;20622;-76
2021/04/11 12:38:57;;;;;;;6.60;1.50;;;20.30;99.90;;;;;;4863627;28;20620;-74
2021/04/11 12:41:23;;;;;;;6.13;1.43;;;20.00;99.90;;;;;;4866935;28;20659;-74
2021/04/11 12:43:51;;;;;;;6.10;1.43;;;19.90;99.90;;;;;;4865689;28;20248;-74
2021/04/11 12:46:19;;;;;;;10.43;2.43;;;19.10;99.90;;;;;;4867381;28;20189;-75
2021/04/11 12:48:52;;;;;;;4.07;1.07;;;18.80;99.90;;;;;;4865128;28;20182;-74
2021/04/11 12:51:20;;;;;;;8.20;1.90;;;18.40;99.90;;;;;;4867221;28;20260;-76
2021/04/11 12:53:55;;;;;;;7.33;1.73;;;18.20;99.90;;;;;;4869082;28;20259;-75
2021/04/11 12:56:19;;;;;;;11.00;2.40;;;18.20;99.90;;;;;;4865388;28;20254;-76
2021/04/11 12:58:45;;;;;;;5.43;1.20;;;18.10;99.90;;;;;;4864839;28;20241;-75
2021/04/11 13:01:16;;;;;;;11.97;2.47;;;18.00;99.90;;;;;;4861533;28;20283;-76
2021/04/11 13:03:43;;;;;;;6.40;1.53;;;18.00;99.90;;;;;;4859218;28;20244;-74
2021/04/11 13:06:12;;;;;;;15.20;3.27;;;17.90;99.90;;;;;;4862466;28;20219;-77
2021/04/11 13:08:43;;;;;;;7.10;1.77;;;17.90;99.90;;;;;;4854720;28;20252;-76
2021/04/11 13:11:13;;;;;;;8.43;2.13;;;17.70;99.90;;;;;;4864799;28;20299;-73
2021/04/11 13:13:43;;;;;;;5.67;1.53;;;17.60;99.90;;;;;;4854777;28;20189;-75
2021/04/11 13:16:14;;;;;;;8.03;1.90;;;17.40;99.90;;;;;;4863503;28;20200;-77
2021/04/11 13:18:43;;;;;;;8.20;2.03;;;17.40;99.90;;;;;;4861040;28;20205;-76
2021/04/11 13:21:14;;;;;;;7.67;1.93;;;17.30;99.90;;;;;;4863287;28;20240;-77
2021/04/11 13:23:45;;;;;;;5.87;1.40;;;17.10;99.90;;;;;;4859085;28;20178;-76
2021/04/11 13:26:13;;;;;;;8.33;2.07;;;17.00;99.90;;;;;;4864986;28;20229;-76